Bethania, North Carolina
Current Conditions -  °F | °C
As of 3:54 PM on Thursday 20 Nov 2014 (Local Time) from KINT Reporting Station
Clear Clear  
Wind Chill: 56°   Ceiling: Unl
Heat Index: 56°   Visibility: 10mi
Dew Point: 23°   Wind: 10mph
Humidity: 28%   Direction: 280°W
Pressure: 30.02"   Gusts: 17mph
Location:  36.18°N, 80.34°W
Report Text: KINT 202054Z AUTO 28009G15KT 10SM CLR 13/M05 A3002 RMK AO2 SLP167 T01331050 55005
Loading
Personal Weather Stations






























Interactive Weather Map New forecast layout! Learn more

10-Day Weather Forecast

Advertisements
Track Severe Weather on mobile